sensor_id;sensor_type;location;lat;lon;timestamp;temperature;humidity
46319;DHT22;32042;50.916;2.926;2023-05-16T00:00:17;7.80;99.90
46319;DHT22;32042;50.916;2.926;2023-05-16T00:02:42;7.80;99.90
46319;DHT22;32042;50.916;2.926;2023-05-16T00:05:08;7.70;99.90
46319;DHT22;32042;50.916;2.926;2023-05-16T00:07:45;7.70;99.90
46319;DHT22;32042;50.916;2.926;2023-05-16T00:10:12;7.70;99.90
46319;DHT22;32042;50.916;2.926;2023-05-16T00:12:39;7.70;99.90
46319;DHT22;32042;50.916;2.926;2023-05-16T00:15:07;7.70;99.90
46319;DHT22;32042;50.916;2.926;2023-05-16T00:17:37;7.70;99.90
46319;DHT22;32042;50.916;2.926;2023-05-16T00:20:03;7.60;99.90
46319;DHT22;32042;50.916;2.926;2023-05-16T00:22:33;7.60;99.90
46319;DHT22;32042;50.916;2.926;2023-05-16T00:24:59;7.60;99.90
46319;DHT22;32042;50.916;2.926;2023-05-16T00:27:25;7.60;99.90
46319;DHT22;32042;50.916;2.926;2023-05-16T00:29:51;7.50;99.90
46319;DHT22;32042;50.916;2.926;2023-05-16T00:32:17;7.50;99.90
46319;DHT22;32042;50.916;2.926;2023-05-16T00:34:43;7.50;99.90
46319;DHT22;32042;50.916;2.926;2023-05-16T00:37:08;7.40;99.90
46319;DHT22;32042;50.916;2.926;2023-05-16T00:39:34;7.40;99.90
46319;DHT22;32042;50.916;2.926;2023-05-16T00:42:00;7.30;99.90
46319;DHT22;32042;50.916;2.926;2023-05-16T00:44:26;7.40;99.90
46319;DHT22;32042;50.916;2.926;2023-05-16T00:46:52;7.30;99.90
46319;DHT22;32042;50.916;2.926;2023-05-16T00:49:18;7.30;99.90
46319;DHT22;32042;50.916;2.926;2023-05-16T00:51:44;7.30;99.90
46319;DHT22;32042;50.916;2.926;2023-05-16T00:54:10;7.20;99.90
46319;DHT22;32042;50.916;2.926;2023-05-16T00:56:36;7.20;99.90
46319;DHT22;32042;50.916;2.926;2023-05-16T00:59:02;7.20;99.90
46319;DHT22;32042;50.916;2.926;2023-05-16T01:01:28;7.20;99.90
46319;DHT22;32042;50.916;2.926;2023-05-16T01:03:55;7.20;99.90
46319;DHT22;32042;50.916;2.926;2023-05-16T01:06:21;7.10;99.90
46319;DHT22;32042;50.916;2.926;2023-05-16T01:08:46;7.10;99.90
46319;DHT22;32042;50.916;2.926;2023-05-16T01:16:30;7.10;99.90
46319;DHT22;32042;50.916;2.926;2023-05-16T01:19:23;7.10;99.90
46319;DHT22;32042;50.916;2.926;2023-05-16T01:22:23;7.10;99.90
46319;DHT22;32042;50.916;2.926;2023-05-16T01:27:22;7.10;99.90
46319;DHT22;32042;50.916;2.926;2023-05-16T01:29:55;7.10;99.90
46319;DHT22;32042;50.916;2.926;2023-05-16T01:32:21;7.10;99.90
46319;DHT22;32042;50.916;2.926;2023-05-16T01:34:49;7.10;99.90
46319;DHT22;32042;50.916;2.926;2023-05-16T01:37:20;7.10;99.90
46319;DHT22;32042;50.916;2.926;2023-05-16T01:40:07;7.00;99.90
46319;DHT22;32042;50.916;2.926;2023-05-16T01:42:37;7.00;99.90
46319;DHT22;32042;50.916;2.926;2023-05-16T01:45:25;7.00;99.90
46319;DHT22;32042;50.916;2.926;2023-05-16T01:48:07;7.00;99.90
46319;DHT22;32042;50.916;2.926;2023-05-16T01:50:38;7.00;99.90
46319;DHT22;32042;50.916;2.926;2023-05-16T01:53:11;7.00;99.90
46319;DHT22;32042;50.916;2.926;2023-05-16T01:55:50;7.00;99.90
46319;DHT22;32042;50.916;2.926;2023-05-16T01:58:20;7.00;99.90
46319;DHT22;32042;50.916;2.926;2023-05-16T02:00:46;7.00;99.90
46319;DHT22;32042;50.916;2.926;2023-05-16T02:03:12;7.00;99.90
46319;DHT22;32042;50.916;2.926;2023-05-16T02:05:38;7.00;99.90
46319;DHT22;32042;50.916;2.926;2023-05-16T02:08:04;7.00;99.90
46319;DHT22;32042;50.916;2.926;2023-05-16T02:10:30;7.00;99.90
46319;DHT22;32042;50.916;2.926;2023-05-16T02:12:56;7.00;99.90
46319;DHT22;32042;50.916;2.926;2023-05-16T02:15:22;6.90;99.90
46319;DHT22;32042;50.916;2.926;2023-05-16T02:17:48;6.90;99.90
46319;DHT22;32042;50.916;2.926;2023-05-16T02:20:14;6.90;99.90
46319;DHT22;32042;50.916;2.926;2023-05-16T02:22:40;6.90;99.90
46319;DHT22;32042;50.916;2.926;2023-05-16T02:25:07;6.90;99.90
46319;DHT22;32042;50.916;2.926;2023-05-16T02:27:33;6.90;99.90
46319;DHT22;32042;50.916;2.926;2023-05-16T02:29:58;6.80;99.90
46319;DHT22;32042;50.916;2.926;2023-05-16T02:32:25;6.80;99.90
46319;DHT22;32042;50.916;2.926;2023-05-16T02:34:52;6.80;99.90
46319;DHT22;32042;50.916;2.926;2023-05-16T02:37:18;6.80;99.90
46319;DHT22;32042;50.916;2.926;2023-05-16T02:39:45;6.80;99.90
46319;DHT22;32042;50.916;2.926;2023-05-16T02:42:12;6.80;99.90
46319;DHT22;32042;50.916;2.926;2023-05-16T02:44:38;6.80;99.90
46319;DHT22;32042;50.916;2.926;2023-05-16T02:47:06;6.80;99.90
46319;DHT22;32042;50.916;2.926;2023-05-16T02:49:33;6.70;99.90
46319;DHT22;32042;50.916;2.926;2023-05-16T02:51:59;6.70;99.90
46319;DHT22;32042;50.916;2.926;2023-05-16T02:54:25;6.70;99.90
46319;DHT22;32042;50.916;2.926;2023-05-16T02:56:51;6.70;99.90
46319;DHT22;32042;50.916;2.926;2023-05-16T02:59:17;6.60;99.90
46319;DHT22;32042;50.916;2.926;2023-05-16T03:01:43;6.60;99.90
46319;DHT22;32042;50.916;2.926;2023-05-16T03:04:08;6.60;99.90
46319;DHT22;32042;50.916;2.926;2023-05-16T03:06:34;6.60;99.90
46319;DHT22;32042;50.916;2.926;2023-05-16T03:09:00;6.60;99.90
46319;DHT22;32042;50.916;2.926;2023-05-16T03:11:26;6.60;99.90
46319;DHT22;32042;50.916;2.926;2023-05-16T03:13:53;6.70;99.90
46319;DHT22;32042;50.916;2.926;2023-05-16T03:16:19;6.70;99.90
46319;DHT22;32042;50.916;2.926;2023-05-16T03:18:46;6.70;99.90
46319;DHT22;32042;50.916;2.926;2023-05-16T03:21:11;6.60;99.90
46319;DHT22;32042;50.916;2.926;2023-05-16T03:23:37;6.60;99.90
46319;DHT22;32042;50.916;2.926;2023-05-16T03:26:03;6.70;99.90
46319;DHT22;32042;50.916;2.926;2023-05-16T03:28:29;6.60;99.90
46319;DHT22;32042;50.916;2.926;2023-05-16T03:30:54;6.60;99.90
46319;DHT22;32042;50.916;2.926;2023-05-16T03:33:20;6.60;99.90
46319;DHT22;32042;50.916;2.926;2023-05-16T03:35:46;6.60;99.90
46319;DHT22;32042;50.916;2.926;2023-05-16T03:38:12;6.60;99.90
46319;DHT22;32042;50.916;2.926;2023-05-16T03:40:38;6.50;99.90
46319;DHT22;32042;50.916;2.926;2023-05-16T03:43:04;6.50;99.90
46319;DHT22;32042;50.916;2.926;2023-05-16T03:45:30;6.50;99.90
46319;DHT22;32042;50.916;2.926;2023-05-16T03:47:56;6.50;99.90
46319;DHT22;32042;50.916;2.926;2023-05-16T03:50:22;6.50;99.90
46319;DHT22;32042;50.916;2.926;2023-05-16T03:52:47;6.50;99.90
46319;DHT22;32042;50.916;2.926;2023-05-16T03:55:13;6.50;99.90
46319;DHT22;32042;50.916;2.926;2023-05-16T03:57:40;6.50;99.90
46319;DHT22;32042;50.916;2.926;2023-05-16T04:00:10;6.50;99.90
46319;DHT22;32042;50.916;2.926;2023-05-16T04:02:37;6.50;99.90
46319;DHT22;32042;50.916;2.926;2023-05-16T04:05:08;6.50;99.90
46319;DHT22;32042;50.916;2.926;2023-05-16T04:07:35;6.50;99.90
46319;DHT22;32042;50.916;2.926;2023-05-16T04:10:01;6.50;99.90
46319;DHT22;32042;50.916;2.926;2023-05-16T04:12:27;6.50;99.90
46319;DHT22;32042;50.916;2.926;2023-05-16T04:14:53;6.50;99.90
46319;DHT22;32042;50.916;2.926;2023-05-16T04:17:18;6.50;99.90
46319;DHT22;32042;50.916;2.926;2023-05-16T04:19:44;6.50;99.90
46319;DHT22;32042;50.916;2.926;2023-05-16T04:22:10;6.50;99.90
46319;DHT22;32042;50.916;2.926;2023-05-16T04:24:36;6.60;99.90
46319;DHT22;32042;50.916;2.926;2023-05-16T04:27:02;6.60;99.90
46319;DHT22;32042;50.916;2.926;2023-05-16T04:29:29;6.60;99.90
46319;DHT22;32042;50.916;2.926;2023-05-16T04:31:55;6.60;99.90
46319;DHT22;32042;50.916;2.926;2023-05-16T04:34:21;6.60;99.90
46319;DHT22;32042;50.916;2.926;2023-05-16T04:36:52;6.60;99.90
46319;DHT22;32042;50.916;2.926;2023-05-16T04:39:18;6.50;99.90
46319;DHT22;32042;50.916;2.926;2023-05-16T04:41:44;6.50;99.90
46319;DHT22;32042;50.916;2.926;2023-05-16T04:44:09;6.50;99.90
46319;DHT22;32042;50.916;2.926;2023-05-16T04:46:36;6.50;99.90
46319;DHT22;32042;50.916;2.926;2023-05-16T04:49:01;6.50;99.90
46319;DHT22;32042;50.916;2.926;2023-05-16T04:51:27;6.50;99.90
46319;DHT22;32042;50.916;2.926;2023-05-16T04:53:53;6.50;99.90
46319;DHT22;32042;50.916;2.926;2023-05-16T04:56:19;6.60;99.90
46319;DHT22;32042;50.916;2.926;2023-05-16T04:58:45;6.60;99.90
46319;DHT22;32042;50.916;2.926;2023-05-16T05:01:11;6.70;99.90
46319;DHT22;32042;50.916;2.926;2023-05-16T05:03:37;6.80;99.90
46319;DHT22;32042;50.916;2.926;2023-05-16T05:06:03;6.90;99.90
46319;DHT22;32042;50.916;2.926;2023-05-16T05:08:29;6.90;99.90
46319;DHT22;32042;50.916;2.926;2023-05-16T05:10:55;7.00;99.90
46319;DHT22;32042;50.916;2.926;2023-05-16T05:13:21;7.10;99.90
46319;DHT22;32042;50.916;2.926;2023-05-16T05:15:48;7.10;99.90
46319;DHT22;32042;50.916;2.926;2023-05-16T05:18:14;7.20;99.90
46319;DHT22;32042;50.916;2.926;2023-05-16T05:20:40;7.20;99.90
46319;DHT22;32042;50.916;2.926;2023-05-16T05:23:06;7.30;99.90
46319;DHT22;32042;50.916;2.926;2023-05-16T05:25:34;7.40;99.90
46319;DHT22;32042;50.916;2.926;2023-05-16T05:28:00;7.40;99.90
46319;DHT22;32042;50.916;2.926;2023-05-16T05:30:25;7.50;99.90
46319;DHT22;32042;50.916;2.926;2023-05-16T05:32:51;7.60;99.90
46319;DHT22;32042;50.916;2.926;2023-05-16T05:35:18;7.70;99.90
46319;DHT22;32042;50.916;2.926;2023-05-16T05:37:43;7.70;99.90
46319;DHT22;32042;50.916;2.926;2023-05-16T05:40:09;7.80;99.90
46319;DHT22;32042;50.916;2.926;2023-05-16T05:42:35;7.90;99.90
46319;DHT22;32042;50.916;2.926;2023-05-16T05:45:01;8.00;99.90
46319;DHT22;32042;50.916;2.926;2023-05-16T05:47:27;8.10;99.90
46319;DHT22;32042;50.916;2.926;2023-05-16T05:49:52;8.20;99.90
46319;DHT22;32042;50.916;2.926;2023-05-16T05:52:18;8.30;99.90
46319;DHT22;32042;50.916;2.926;2023-05-16T05:54:44;8.40;99.90
46319;DHT22;32042;50.916;2.926;2023-05-16T05:57:10;8.50;99.90
46319;DHT22;32042;50.916;2.926;2023-05-16T05:59:35;8.60;99.90
46319;DHT22;32042;50.916;2.926;2023-05-16T06:02:01;8.70;99.90
46319;DHT22;32042;50.916;2.926;2023-05-16T06:04:27;8.80;99.90
46319;DHT22;32042;50.916;2.926;2023-05-16T06:06:52;8.90;99.90
46319;DHT22;32042;50.916;2.926;2023-05-16T06:09:19;9.00;99.90
46319;DHT22;32042;50.916;2.926;2023-05-16T06:11:45;9.10;99.90
46319;DHT22;32042;50.916;2.926;2023-05-16T06:14:12;9.20;99.90
46319;DHT22;32042;50.916;2.926;2023-05-16T06:16:38;9.30;99.90
46319;DHT22;32042;50.916;2.926;2023-05-16T06:19:04;9.50;99.90
46319;DHT22;32042;50.916;2.926;2023-05-16T06:21:30;9.60;99.90
46319;DHT22;32042;50.916;2.926;2023-05-16T06:23:56;9.70;99.90
46319;DHT22;32042;50.916;2.926;2023-05-16T06:26:22;9.90;99.90
46319;DHT22;32042;50.916;2.926;2023-05-16T06:28:49;10.10;99.90
46319;DHT22;32042;50.916;2.926;2023-05-16T06:31:14;10.20;99.90
46319;DHT22;32042;50.916;2.926;2023-05-16T06:33:40;10.40;99.90
46319;DHT22;32042;50.916;2.926;2023-05-16T06:36:06;10.60;99.90
46319;DHT22;32042;50.916;2.926;2023-05-16T06:38:32;10.70;99.90
46319;DHT22;32042;50.916;2.926;2023-05-16T06:40:58;10.90;99.90
46319;DHT22;32042;50.916;2.926;2023-05-16T06:43:23;11.00;99.90
46319;DHT22;32042;50.916;2.926;2023-05-16T06:45:49;11.20;99.90
46319;DHT22;32042;50.916;2.926;2023-05-16T06:48:16;11.30;99.90
46319;DHT22;32042;50.916;2.926;2023-05-16T06:50:46;11.50;99.90
46319;DHT22;32042;50.916;2.926;2023-05-16T06:53:11;11.60;99.90
46319;DHT22;32042;50.916;2.926;2023-05-16T06:55:37;11.80;99.90
46319;DHT22;32042;50.916;2.926;2023-05-16T06:58:03;11.90;99.90
46319;DHT22;32042;50.916;2.926;2023-05-16T07:00:29;12.00;99.90
46319;DHT22;32042;50.916;2.926;2023-05-16T07:02:55;12.20;99.90
46319;DHT22;32042;50.916;2.926;2023-05-16T07:05:20;12.30;99.90
46319;DHT22;32042;50.916;2.926;2023-05-16T07:07:46;12.30;99.90
46319;DHT22;32042;50.916;2.926;2023-05-16T07:10:14;12.10;99.90
46319;DHT22;32042;50.916;2.926;2023-05-16T07:12:41;11.90;99.90
46319;DHT22;32042;50.916;2.926;2023-05-16T07:15:07;11.70;99.90
46319;DHT22;32042;50.916;2.926;2023-05-16T07:17:33;11.50;99.90
46319;DHT22;32042;50.916;2.926;2023-05-16T07:20:00;11.30;99.90
46319;DHT22;32042;50.916;2.926;2023-05-16T07:22:25;11.30;99.90
46319;DHT22;32042;50.916;2.926;2023-05-16T07:24:51;11.30;99.90
46319;DHT22;32042;50.916;2.926;2023-05-16T07:27:21;11.30;99.90
46319;DHT22;32042;50.916;2.926;2023-05-16T07:29:47;11.40;99.90
46319;DHT22;32042;50.916;2.926;2023-05-16T07:32:13;11.50;99.90
46319;DHT22;32042;50.916;2.926;2023-05-16T07:34:38;11.60;99.90
46319;DHT22;32042;50.916;2.926;2023-05-16T07:37:04;11.80;99.90
46319;DHT22;32042;50.916;2.926;2023-05-16T07:39:32;11.90;99.90
46319;DHT22;32042;50.916;2.926;2023-05-16T07:41:58;12.10;99.90
46319;DHT22;32042;50.916;2.926;2023-05-16T07:44:23;12.20;99.90
46319;DHT22;32042;50.916;2.926;2023-05-16T07:46:49;12.30;99.90
46319;DHT22;32042;50.916;2.926;2023-05-16T07:49:15;12.40;99.90
46319;DHT22;32042;50.916;2.926;2023-05-16T07:51:41;12.40;99.90
46319;DHT22;32042;50.916;2.926;2023-05-16T07:54:06;12.50;99.90
46319;DHT22;32042;50.916;2.926;2023-05-16T07:56:32;12.60;99.90
46319;DHT22;32042;50.916;2.926;2023-05-16T07:58:58;12.60;99.90
46319;DHT22;32042;50.916;2.926;2023-05-16T08:01:24;12.70;99.90
46319;DHT22;32042;50.916;2.926;2023-05-16T08:03:50;12.70;99.90
46319;DHT22;32042;50.916;2.926;2023-05-16T08:06:17;12.60;99.90
46319;DHT22;32042;50.916;2.926;2023-05-16T08:08:43;12.40;99.90
46319;DHT22;32042;50.916;2.926;2023-05-16T08:11:09;12.30;99.90
46319;DHT22;32042;50.916;2.926;2023-05-16T08:13:35;12.20;99.90
46319;DHT22;32042;50.916;2.926;2023-05-16T08:16:01;12.10;99.90
46319;DHT22;32042;50.916;2.926;2023-05-16T08:18:27;11.90;99.90
46319;DHT22;32042;50.916;2.926;2023-05-16T08:20:52;11.80;99.90
46319;DHT22;32042;50.916;2.926;2023-05-16T08:23:18;11.80;99.90
46319;DHT22;32042;50.916;2.926;2023-05-16T08:25:44;11.80;99.90
46319;DHT22;32042;50.916;2.926;2023-05-16T08:28:10;11.80;99.90
46319;DHT22;32042;50.916;2.926;2023-05-16T08:30:35;12.00;99.90
46319;DHT22;32042;50.916;2.926;2023-05-16T08:33:01;12.10;99.90
46319;DHT22;32042;50.916;2.926;2023-05-16T08:35:30;12.30;99.90
46319;DHT22;32042;50.916;2.926;2023-05-16T08:37:56;12.60;99.90
46319;DHT22;32042;50.916;2.926;2023-05-16T08:40:25;12.70;99.90
46319;DHT22;32042;50.916;2.926;2023-05-16T08:42:51;12.60;99.90
46319;DHT22;32042;50.916;2.926;2023-05-16T08:45:18;12.60;99.90
46319;DHT22;32042;50.916;2.926;2023-05-16T08:47:44;12.80;99.90
46319;DHT22;32042;50.916;2.926;2023-05-16T08:50:13;12.90;99.90
46319;DHT22;32042;50.916;2.926;2023-05-16T08:52:41;13.10;99.90
46319;DHT22;32042;50.916;2.926;2023-05-16T08:55:08;13.30;99.90
46319;DHT22;32042;50.916;2.926;2023-05-16T08:57:36;13.40;99.90
46319;DHT22;32042;50.916;2.926;2023-05-16T09:00:02;13.70;99.90
46319;DHT22;32042;50.916;2.926;2023-05-16T09:02:38;13.90;99.90
46319;DHT22;32042;50.916;2.926;2023-05-16T09:05:04;13.70;99.90
46319;DHT22;32042;50.916;2.926;2023-05-16T09:07:30;13.70;99.90
46319;DHT22;32042;50.916;2.926;2023-05-16T09:09:56;13.60;99.90
46319;DHT22;32042;50.916;2.926;2023-05-16T09:12:22;13.70;99.90
46319;DHT22;32042;50.916;2.926;2023-05-16T09:14:47;13.80;99.90
46319;DHT22;32042;50.916;2.926;2023-05-16T09:17:13;13.90;99.90
46319;DHT22;32042;50.916;2.926;2023-05-16T09:19:43;13.70;99.90
46319;DHT22;32042;50.916;2.926;2023-05-16T09:22:11;13.70;99.90
46319;DHT22;32042;50.916;2.926;2023-05-16T09:24:41;13.60;99.90
46319;DHT22;32042;50.916;2.926;2023-05-16T09:27:12;13.60;99.90
46319;DHT22;32042;50.916;2.926;2023-05-16T09:29:42;13.60;99.90
46319;DHT22;32042;50.916;2.926;2023-05-16T09:32:12;13.90;99.90
46319;DHT22;32042;50.916;2.926;2023-05-16T09:34:43;14.10;99.90
46319;DHT22;32042;50.916;2.926;2023-05-16T09:37:10;14.10;99.90
46319;DHT22;32042;50.916;2.926;2023-05-16T09:39:37;14.00;99.90
46319;DHT22;32042;50.916;2.926;2023-05-16T09:42:03;14.10;99.90
46319;DHT22;32042;50.916;2.926;2023-05-16T09:44:30;14.20;99.90
46319;DHT22;32042;50.916;2.926;2023-05-16T09:46:56;14.40;99.90
46319;DHT22;32042;50.916;2.926;2023-05-16T09:49:22;14.40;99.90
46319;DHT22;32042;50.916;2.926;2023-05-16T09:51:49;14.60;99.90
46319;DHT22;32042;50.916;2.926;2023-05-16T09:54:15;14.70;99.90
46319;DHT22;32042;50.916;2.926;2023-05-16T09:56:50;14.70;99.90
46319;DHT22;32042;50.916;2.926;2023-05-16T09:59:16;14.70;99.90
46319;DHT22;32042;50.916;2.926;2023-05-16T10:01:42;14.70;99.90
46319;DHT22;32042;50.916;2.926;2023-05-16T10:04:08;14.80;99.90
46319;DHT22;32042;50.916;2.926;2023-05-16T10:06:39;14.80;99.90
46319;DHT22;32042;50.916;2.926;2023-05-16T10:09:06;14.90;99.90
46319;DHT22;32042;50.916;2.926;2023-05-16T10:11:32;14.80;99.90
46319;DHT22;32042;50.916;2.926;2023-05-16T10:14:00;14.80;99.90
46319;DHT22;32042;50.916;2.926;2023-05-16T10:16:25;14.90;99.90
46319;DHT22;32042;50.916;2.926;2023-05-16T10:18:52;14.90;99.90
46319;DHT22;32042;50.916;2.926;2023-05-16T10:21:18;14.80;99.90
46319;DHT22;32042;50.916;2.926;2023-05-16T10:23:47;14.90;99.90
46319;DHT22;32042;50.916;2.926;2023-05-16T10:26:15;15.10;99.90
46319;DHT22;32042;50.916;2.926;2023-05-16T10:28:42;15.20;99.90
46319;DHT22;32042;50.916;2.926;2023-05-16T10:31:09;15.10;99.90
46319;DHT22;32042;50.916;2.926;2023-05-16T10:33:36;15.00;99.90
46319;DHT22;32042;50.916;2.926;2023-05-16T10:36:03;15.00;99.90
46319;DHT22;32042;50.916;2.926;2023-05-16T10:38:30;15.00;99.90
46319;DHT22;32042;50.916;2.926;2023-05-16T10:40:57;15.10;99.90
46319;DHT22;32042;50.916;2.926;2023-05-16T10:43:28;15.20;99.90
46319;DHT22;32042;50.916;2.926;2023-05-16T10:45:56;15.30;99.90
46319;DHT22;32042;50.916;2.926;2023-05-16T10:50:55;15.50;99.90
46319;DHT22;32042;50.916;2.926;2023-05-16T10:53:22;15.50;99.90
46319;DHT22;32042;50.916;2.926;2023-05-16T11:01:23;15.30;99.90
46319;DHT22;32042;50.916;2.926;2023-05-16T11:04:05;15.30;99.90
46319;DHT22;32042;50.916;2.926;2023-05-16T11:14:20;15.40;99.90
46319;DHT22;32042;50.916;2.926;2023-05-16T11:19:43;15.50;99.90
46319;DHT22;32042;50.916;2.926;2023-05-16T11:25:01;15.80;99.90
46319;DHT22;32042;50.916;2.926;2023-05-16T11:27:34;15.80;99.90
46319;DHT22;32042;50.916;2.926;2023-05-16T11:32:37;15.70;99.90
46319;DHT22;32042;50.916;2.926;2023-05-16T11:35:05;15.80;99.90
46319;DHT22;32042;50.916;2.926;2023-05-16T11:37:32;15.90;99.90
46319;DHT22;32042;50.916;2.926;2023-05-16T11:40:04;16.00;99.90
46319;DHT22;32042;50.916;2.926;2023-05-16T11:42:41;15.90;99.90
46319;DHT22;32042;50.916;2.926;2023-05-16T11:45:15;15.90;99.90
46319;DHT22;32042;50.916;2.926;2023-05-16T11:47:43;16.00;99.90
46319;DHT22;32042;50.916;2.926;2023-05-16T11:50:16;16.10;99.90
46319;DHT22;32042;50.916;2.926;2023-05-16T11:52:46;16.10;99.90
46319;DHT22;32042;50.916;2.926;2023-05-16T11:55:13;16.10;99.90
46319;DHT22;32042;50.916;2.926;2023-05-16T11:57:40;16.20;99.90
46319;DHT22;32042;50.916;2.926;2023-05-16T12:00:17;16.10;99.90
46319;DHT22;32042;50.916;2.926;2023-05-16T12:02:48;16.20;99.90
46319;DHT22;32042;50.916;2.926;2023-05-16T12:05:17;16.30;99.90
46319;DHT22;32042;50.916;2.926;2023-05-16T12:07:45;16.40;99.90
46319;DHT22;32042;50.916;2.926;2023-05-16T12:10:13;16.30;99.90
46319;DHT22;32042;50.916;2.926;2023-05-16T12:12:41;16.30;99.90
46319;DHT22;32042;50.916;2.926;2023-05-16T12:15:08;16.40;99.90
46319;DHT22;32042;50.916;2.926;2023-05-16T12:17:36;16.40;99.90
46319;DHT22;32042;50.916;2.926;2023-05-16T12:20:03;16.50;99.90
46319;DHT22;32042;50.916;2.926;2023-05-16T12:22:42;16.60;99.90
46319;DHT22;32042;50.916;2.926;2023-05-16T12:25:26;16.50;99.90
46319;DHT22;32042;50.916;2.926;2023-05-16T12:27:53;16.50;99.90
46319;DHT22;32042;50.916;2.926;2023-05-16T12:30:25;16.40;99.90
46319;DHT22;32042;50.916;2.926;2023-05-16T12:33:00;16.30;99.90
46319;DHT22;32042;50.916;2.926;2023-05-16T12:35:31;16.30;99.90
46319;DHT22;32042;50.916;2.926;2023-05-16T12:37:58;16.30;99.90
46319;DHT22;32042;50.916;2.926;2023-05-16T12:40:28;16.20;99.90
46319;DHT22;32042;50.916;2.926;2023-05-16T12:42:54;16.10;99.90
46319;DHT22;32042;50.916;2.926;2023-05-16T12:45:21;16.20;99.90
46319;DHT22;32042;50.916;2.926;2023-05-16T12:47:48;16.30;99.90
46319;DHT22;32042;50.916;2.926;2023-05-16T12:50:14;16.20;99.90
46319;DHT22;32042;50.916;2.926;2023-05-16T12:52:51;16.20;99.90
46319;DHT22;32042;50.916;2.926;2023-05-16T12:55:17;16.40;99.90
46319;DHT22;32042;50.916;2.926;2023-05-16T12:57:44;16.30;99.90
46319;DHT22;32042;50.916;2.926;2023-05-16T13:00:12;16.40;99.90
46319;DHT22;32042;50.916;2.926;2023-05-16T13:02:39;16.40;99.90
46319;DHT22;32042;50.916;2.926;2023-05-16T13:05:05;16.30;99.90
46319;DHT22;32042;50.916;2.926;2023-05-16T13:07:35;16.10;99.90
46319;DHT22;32042;50.916;2.926;2023-05-16T13:10:01;16.00;99.90
46319;DHT22;32042;50.916;2.926;2023-05-16T13:12:28;16.10;99.90
46319;DHT22;32042;50.916;2.926;2023-05-16T13:14:54;16.10;99.90
46319;DHT22;32042;50.916;2.926;2023-05-16T13:17:20;16.10;99.90
46319;DHT22;32042;50.916;2.926;2023-05-16T13:19:46;16.20;99.90
46319;DHT22;32042;50.916;2.926;2023-05-16T13:22:12;16.30;99.90
46319;DHT22;32042;50.916;2.926;2023-05-16T13:24:37;16.40;99.90
46319;DHT22;32042;50.916;2.926;2023-05-16T13:27:03;16.40;99.90
46319;DHT22;32042;50.916;2.926;2023-05-16T13:29:29;16.40;99.90
46319;DHT22;32042;50.916;2.926;2023-05-16T13:31:55;16.40;99.90
46319;DHT22;32042;50.916;2.926;2023-05-16T13:34:21;16.60;99.90
46319;DHT22;32042;50.916;2.926;2023-05-16T13:36:46;16.70;99.90
46319;DHT22;32042;50.916;2.926;2023-05-16T13:39:13;16.90;99.90
46319;DHT22;32042;50.916;2.926;2023-05-16T13:41:39;17.00;99.90
46319;DHT22;32042;50.916;2.926;2023-05-16T13:44:06;17.20;99.90
46319;DHT22;32042;50.916;2.926;2023-05-16T13:46:32;17.20;99.90
46319;DHT22;32042;50.916;2.926;2023-05-16T13:48:58;17.10;99.90
46319;DHT22;32042;50.916;2.926;2023-05-16T13:51:24;17.10;99.90
46319;DHT22;32042;50.916;2.926;2023-05-16T13:53:50;17.00;99.90
46319;DHT22;32042;50.916;2.926;2023-05-16T13:56:16;16.90;99.90
46319;DHT22;32042;50.916;2.926;2023-05-16T13:58:42;16.60;99.90
46319;DHT22;32042;50.916;2.926;2023-05-16T14:01:08;16.60;99.90
46319;DHT22;32042;50.916;2.926;2023-05-16T14:03:33;16.70;99.90
46319;DHT22;32042;50.916;2.926;2023-05-16T14:06:01;16.70;99.90
46319;DHT22;32042;50.916;2.926;2023-05-16T14:08:27;16.70;99.90
46319;DHT22;32042;50.916;2.926;2023-05-16T14:10:53;16.70;99.90
46319;DHT22;32042;50.916;2.926;2023-05-16T14:13:19;16.70;99.90
46319;DHT22;32042;50.916;2.926;2023-05-16T14:15:45;16.70;99.90
46319;DHT22;32042;50.916;2.926;2023-05-16T14:18:11;16.60;99.90
46319;DHT22;32042;50.916;2.926;2023-05-16T14:20:38;16.50;99.90
46319;DHT22;32042;50.916;2.926;2023-05-16T14:23:04;16.50;99.90
46319;DHT22;32042;50.916;2.926;2023-05-16T14:25:30;16.50;99.90
46319;DHT22;32042;50.916;2.926;2023-05-16T14:27:56;16.40;99.90
46319;DHT22;32042;50.916;2.926;2023-05-16T14:30:21;16.50;99.90
46319;DHT22;32042;50.916;2.926;2023-05-16T14:32:48;16.60;99.90
46319;DHT22;32042;50.916;2.926;2023-05-16T14:35:13;16.70;99.90
46319;DHT22;32042;50.916;2.926;2023-05-16T14:37:39;17.00;99.90
46319;DHT22;32042;50.916;2.926;2023-05-16T14:40:06;16.90;99.90
46319;DHT22;32042;50.916;2.926;2023-05-16T14:42:33;17.00;99.90
46319;DHT22;32042;50.916;2.926;2023-05-16T14:44:59;16.80;99.90
46319;DHT22;32042;50.916;2.926;2023-05-16T14:47:25;16.70;99.90
46319;DHT22;32042;50.916;2.926;2023-05-16T14:49:50;16.70;99.90
46319;DHT22;32042;50.916;2.926;2023-05-16T14:52:18;16.80;99.90
46319;DHT22;32042;50.916;2.926;2023-05-16T14:54:44;16.90;99.90
46319;DHT22;32042;50.916;2.926;2023-05-16T14:57:10;17.00;99.90
46319;DHT22;32042;50.916;2.926;2023-05-16T14:59:36;17.00;99.90
46319;DHT22;32042;50.916;2.926;2023-05-16T15:02:01;16.90;99.90
46319;DHT22;32042;50.916;2.926;2023-05-16T15:04:27;16.80;99.90
46319;DHT22;32042;50.916;2.926;2023-05-16T15:06:53;16.80;99.90
46319;DHT22;32042;50.916;2.926;2023-05-16T15:09:19;16.70;99.90
46319;DHT22;32042;50.916;2.926;2023-05-16T15:11:45;16.80;99.90
46319;DHT22;32042;50.916;2.926;2023-05-16T15:14:11;17.00;99.90
46319;DHT22;32042;50.916;2.926;2023-05-16T15:16:37;17.20;99.90
46319;DHT22;32042;50.916;2.926;2023-05-16T15:19:02;17.40;99.90
46319;DHT22;32042;50.916;2.926;2023-05-16T15:21:28;17.50;99.90
46319;DHT22;32042;50.916;2.926;2023-05-16T15:23:55;17.50;99.90
46319;DHT22;32042;50.916;2.926;2023-05-16T15:26:21;17.30;99.90
46319;DHT22;32042;50.916;2.926;2023-05-16T15:28:47;17.20;99.90
46319;DHT22;32042;50.916;2.926;2023-05-16T15:31:12;17.20;99.90
46319;DHT22;32042;50.916;2.926;2023-05-16T15:33:38;17.30;99.90
46319;DHT22;32042;50.916;2.926;2023-05-16T15:36:04;17.40;99.90
46319;DHT22;32042;50.916;2.926;2023-05-16T15:38:30;17.50;99.90
46319;DHT22;32042;50.916;2.926;2023-05-16T15:40:56;17.30;99.90
46319;DHT22;32042;50.916;2.926;2023-05-16T15:43:22;17.40;99.90
46319;DHT22;32042;50.916;2.926;2023-05-16T15:45:48;17.30;99.90
46319;DHT22;32042;50.916;2.926;2023-05-16T15:48:14;17.20;99.90
46319;DHT22;32042;50.916;2.926;2023-05-16T15:50:40;17.30;99.90
46319;DHT22;32042;50.916;2.926;2023-05-16T15:53:06;17.30;99.90
46319;DHT22;32042;50.916;2.926;2023-05-16T15:55:32;17.10;99.90
46319;DHT22;32042;50.916;2.926;2023-05-16T15:57:57;17.20;99.90
46319;DHT22;32042;50.916;2.926;2023-05-16T16:00:24;17.30;99.90
46319;DHT22;32042;50.916;2.926;2023-05-16T16:02:50;17.40;99.90
46319;DHT22;32042;50.916;2.926;2023-05-16T16:05:16;17.50;99.90
46319;DHT22;32042;50.916;2.926;2023-05-16T16:07:42;17.30;99.90